sensor_id;sensor_type;location;lat;lon;timestamp;P1;durP1;ratioP1;P2;durP2;ratioP2
19998;SDS011;10160;50.926;4.374;2024-01-16T00:01:26;21.50;;;4.50;;
19998;SDS011;10160;50.926;4.374;2024-01-16T00:03:58;10.73;;;4.87;;
19998;SDS011;10160;50.926;4.374;2024-01-16T00:06:23;16.87;;;5.40;;
19998;SDS011;10160;50.926;4.374;2024-01-16T00:08:49;14.77;;;3.90;;
19998;SDS011;10160;50.926;4.374;2024-01-16T00:11:14;12.13;;;4.07;;
19998;SDS011;10160;50.926;4.374;2024-01-16T00:13:40;12.10;;;4.37;;
19998;SDS011;10160;50.926;4.374;2024-01-16T00:16:09;12.13;;;4.10;;
19998;SDS011;10160;50.926;4.374;2024-01-16T00:18:34;14.07;;;5.90;;
19998;SDS011;10160;50.926;4.374;2024-01-16T00:21:00;14.27;;;5.50;;
19998;SDS011;10160;50.926;4.374;2024-01-16T00:23:29;15.97;;;5.07;;
19998;SDS011;10160;50.926;4.374;2024-01-16T00:25:57;12.60;;;4.33;;
19998;SDS011;10160;50.926;4.374;2024-01-16T00:28:23;16.90;;;4.20;;
19998;SDS011;10160;50.926;4.374;2024-01-16T00:30:49;11.13;;;4.67;;
19998;SDS011;10160;50.926;4.374;2024-01-16T00:33:17;12.53;;;3.87;;
19998;SDS011;10160;50.926;4.374;2024-01-16T00:35:42;11.77;;;4.00;;
19998;SDS011;10160;50.926;4.374;2024-01-16T00:38:08;7.87;;;3.40;;
19998;SDS011;10160;50.926;4.374;2024-01-16T00:40:34;12.70;;;3.70;;
19998;SDS011;10160;50.926;4.374;2024-01-16T00:42:59;17.67;;;3.30;;
19998;SDS011;10160;50.926;4.374;2024-01-16T00:45:25;8.20;;;2.47;;
19998;SDS011;10160;50.926;4.374;2024-01-16T00:47:51;9.93;;;3.77;;
19998;SDS011;10160;50.926;4.374;2024-01-16T00:50:17;6.60;;;3.33;;
19998;SDS011;10160;50.926;4.374;2024-01-16T00:52:42;11.60;;;4.17;;
19998;SDS011;10160;50.926;4.374;2024-01-16T00:55:08;9.23;;;3.70;;
19998;SDS011;10160;50.926;4.374;2024-01-16T00:57:34;11.97;;;3.70;;
19998;SDS011;10160;50.926;4.374;2024-01-16T00:59:59;7.03;;;3.50;;
19998;SDS011;10160;50.926;4.374;2024-01-16T01:02:25;12.13;;;4.33;;
19998;SDS011;10160;50.926;4.374;2024-01-16T01:04:59;14.20;;;4.93;;
19998;SDS011;10160;50.926;4.374;2024-01-16T01:07:25;12.13;;;4.30;;
19998;SDS011;10160;50.926;4.374;2024-01-16T01:09:52;6.63;;;3.57;;
19998;SDS011;10160;50.926;4.374;2024-01-16T01:12:26;7.93;;;4.20;;
19998;SDS011;10160;50.926;4.374;2024-01-16T01:14:52;11.43;;;4.07;;
19998;SDS011;10160;50.926;4.374;2024-01-16T01:17:17;9.23;;;3.87;;
19998;SDS011;10160;50.926;4.374;2024-01-16T01:19:43;10.53;;;4.20;;
19998;SDS011;10160;50.926;4.374;2024-01-16T01:22:11;14.93;;;3.70;;
19998;SDS011;10160;50.926;4.374;2024-01-16T01:24:37;8.57;;;3.90;;
19998;SDS011;10160;50.926;4.374;2024-01-16T01:27:03;11.37;;;4.43;;
19998;SDS011;10160;50.926;4.374;2024-01-16T01:29:29;11.83;;;3.37;;
19998;SDS011;10160;50.926;4.374;2024-01-16T01:31:54;8.10;;;3.27;;
19998;SDS011;10160;50.926;4.374;2024-01-16T01:34:20;16.90;;;4.90;;
19998;SDS011;10160;50.926;4.374;2024-01-16T01:36:46;9.33;;;4.80;;
19998;SDS011;10160;50.926;4.374;2024-01-16T01:39:15;15.07;;;4.20;;
19998;SDS011;10160;50.926;4.374;2024-01-16T01:41:40;10.57;;;4.03;;
19998;SDS011;10160;50.926;4.374;2024-01-16T01:44:06;12.73;;;4.23;;
19998;SDS011;10160;50.926;4.374;2024-01-16T01:46:46;9.03;;;3.63;;
19998;SDS011;10160;50.926;4.374;2024-01-16T01:49:13;14.83;;;4.60;;
19998;SDS011;10160;50.926;4.374;2024-01-16T01:51:40;12.27;;;4.50;;
19998;SDS011;10160;50.926;4.374;2024-01-16T01:54:09;13.57;;;4.23;;
19998;SDS011;10160;50.926;4.374;2024-01-16T01:56:36;13.30;;;5.00;;
19998;SDS011;10160;50.926;4.374;2024-01-16T01:59:05;9.70;;;4.77;;
19998;SDS011;10160;50.926;4.374;2024-01-16T02:01:32;15.73;;;4.90;;
19998;SDS011;10160;50.926;4.374;2024-01-16T02:03:59;12.77;;;4.27;;
19998;SDS011;10160;50.926;4.374;2024-01-16T02:06:30;8.90;;;4.47;;
19998;SDS011;10160;50.926;4.374;2024-01-16T02:08:55;8.53;;;4.03;;
19998;SDS011;10160;50.926;4.374;2024-01-16T02:11:21;11.67;;;4.30;;
19998;SDS011;10160;50.926;4.374;2024-01-16T02:13:47;12.70;;;4.70;;
19998;SDS011;10160;50.926;4.374;2024-01-16T02:18:49;8.73;;;4.73;;
19998;SDS011;10160;50.926;4.374;2024-01-16T02:21:25;11.10;;;5.10;;
19998;SDS011;10160;50.926;4.374;2024-01-16T02:23:56;12.23;;;4.60;;
19998;SDS011;10160;50.926;4.374;2024-01-16T02:26:22;8.73;;;4.20;;
19998;SDS011;10160;50.926;4.374;2024-01-16T02:28:54;13.47;;;4.60;;
19998;SDS011;10160;50.926;4.374;2024-01-16T02:31:26;10.60;;;4.40;;
19998;SDS011;10160;50.926;4.374;2024-01-16T02:33:51;13.20;;;4.03;;
19998;SDS011;10160;50.926;4.374;2024-01-16T02:36:18;18.70;;;5.33;;
19998;SDS011;10160;50.926;4.374;2024-01-16T02:38:43;13.53;;;5.07;;
19998;SDS011;10160;50.926;4.374;2024-01-16T02:41:15;9.03;;;3.97;;
19998;SDS011;10160;50.926;4.374;2024-01-16T02:43:41;11.70;;;4.40;;
19998;SDS011;10160;50.926;4.374;2024-01-16T02:46:07;7.10;;;3.70;;
19998;SDS011;10160;50.926;4.374;2024-01-16T02:48:34;10.07;;;4.70;;
19998;SDS011;10160;50.926;4.374;2024-01-16T02:51:00;10.60;;;4.27;;
19998;SDS011;10160;50.926;4.374;2024-01-16T02:53:26;10.67;;;4.40;;
19998;SDS011;10160;50.926;4.374;2024-01-16T02:55:58;14.17;;;4.93;;
19998;SDS011;10160;50.926;4.374;2024-01-16T03:01:02;9.90;;;3.70;;
19998;SDS011;10160;50.926;4.374;2024-01-16T03:03:31;12.10;;;4.30;;
19998;SDS011;10160;50.926;4.374;2024-01-16T03:06:05;10.87;;;4.57;;
19998;SDS011;10160;50.926;4.374;2024-01-16T03:08:34;6.80;;;3.37;;
19998;SDS011;10160;50.926;4.374;2024-01-16T03:11:00;12.43;;;4.37;;
19998;SDS011;10160;50.926;4.374;2024-01-16T03:13:33;14.33;;;4.67;;
19998;SDS011;10160;50.926;4.374;2024-01-16T03:15:59;9.67;;;4.17;;
19998;SDS011;10160;50.926;4.374;2024-01-16T03:18:28;11.50;;;4.30;;
19998;SDS011;10160;50.926;4.374;2024-01-16T03:20:54;13.17;;;3.70;;
19998;SDS011;10160;50.926;4.374;2024-01-16T03:23:22;9.07;;;4.30;;
19998;SDS011;10160;50.926;4.374;2024-01-16T03:25:48;15.57;;;4.80;;
19998;SDS011;10160;50.926;4.374;2024-01-16T03:28:14;11.23;;;4.47;;
19998;SDS011;10160;50.926;4.374;2024-01-16T03:30:39;9.53;;;3.77;;
19998;SDS011;10160;50.926;4.374;2024-01-16T03:33:05;8.93;;;3.83;;
19998;SDS011;10160;50.926;4.374;2024-01-16T03:35:31;10.53;;;4.10;;
19998;SDS011;10160;50.926;4.374;2024-01-16T03:37:57;7.77;;;3.93;;
19998;SDS011;10160;50.926;4.374;2024-01-16T03:40:22;9.17;;;5.03;;
19998;SDS011;10160;50.926;4.374;2024-01-16T03:42:48;9.33;;;4.43;;
19998;SDS011;10160;50.926;4.374;2024-01-16T03:45:19;13.17;;;4.70;;
19998;SDS011;10160;50.926;4.374;2024-01-16T03:47:58;14.53;;;4.90;;
19998;SDS011;10160;50.926;4.374;2024-01-16T03:50:23;8.83;;;4.53;;
19998;SDS011;10160;50.926;4.374;2024-01-16T03:52:58;13.10;;;4.57;;
19998;SDS011;10160;50.926;4.374;2024-01-16T03:55:26;22.77;;;6.13;;
19998;SDS011;10160;50.926;4.374;2024-01-16T03:57:55;13.77;;;5.17;;
19998;SDS011;10160;50.926;4.374;2024-01-16T04:00:21;10.97;;;4.97;;
19998;SDS011;10160;50.926;4.374;2024-01-16T04:02:50;17.07;;;6.63;;
19998;SDS011;10160;50.926;4.374;2024-01-16T04:05:15;7.60;;;4.53;;
19998;SDS011;10160;50.926;4.374;2024-01-16T04:07:41;16.60;;;5.23;;
19998;SDS011;10160;50.926;4.374;2024-01-16T04:10:07;17.43;;;5.90;;
19998;SDS011;10160;50.926;4.374;2024-01-16T04:12:33;16.37;;;6.13;;
19998;SDS011;10160;50.926;4.374;2024-01-16T04:15:02;12.63;;;5.50;;
19998;SDS011;10160;50.926;4.374;2024-01-16T04:17:28;16.73;;;6.40;;
19998;SDS011;10160;50.926;4.374;2024-01-16T04:19:56;16.77;;;4.60;;
19998;SDS011;10160;50.926;4.374;2024-01-16T04:22:22;14.63;;;5.53;;
19998;SDS011;10160;50.926;4.374;2024-01-16T04:24:48;11.50;;;5.53;;
19998;SDS011;10160;50.926;4.374;2024-01-16T04:27:14;12.13;;;5.10;;
19998;SDS011;10160;50.926;4.374;2024-01-16T04:29:40;15.03;;;5.17;;
19998;SDS011;10160;50.926;4.374;2024-01-16T04:32:05;16.63;;;5.27;;
19998;SDS011;10160;50.926;4.374;2024-01-16T04:34:31;10.17;;;3.93;;
19998;SDS011;10160;50.926;4.374;2024-01-16T04:36:59;14.63;;;6.00;;
19998;SDS011;10160;50.926;4.374;2024-01-16T04:39:28;13.00;;;5.30;;
19998;SDS011;10160;50.926;4.374;2024-01-16T04:41:53;14.70;;;4.97;;
19998;SDS011;10160;50.926;4.374;2024-01-16T04:44:19;11.13;;;5.50;;
19998;SDS011;10160;50.926;4.374;2024-01-16T04:46:45;15.07;;;5.37;;
19998;SDS011;10160;50.926;4.374;2024-01-16T04:49:10;14.47;;;5.30;;
19998;SDS011;10160;50.926;4.374;2024-01-16T04:51:36;12.23;;;5.50;;
19998;SDS011;10160;50.926;4.374;2024-01-16T04:54:02;14.97;;;5.40;;
19998;SDS011;10160;50.926;4.374;2024-01-16T04:56:27;14.63;;;6.17;;
19998;SDS011;10160;50.926;4.374;2024-01-16T04:58:53;12.03;;;4.97;;
19998;SDS011;10160;50.926;4.374;2024-01-16T05:01:19;12.10;;;5.60;;
19998;SDS011;10160;50.926;4.374;2024-01-16T05:03:44;11.30;;;4.83;;
19998;SDS011;10160;50.926;4.374;2024-01-16T05:06:13;15.53;;;5.33;;
19998;SDS011;10160;50.926;4.374;2024-01-16T05:08:40;11.57;;;4.80;;
19998;SDS011;10160;50.926;4.374;2024-01-16T05:11:09;15.90;;;4.90;;
19998;SDS011;10160;50.926;4.374;2024-01-16T05:13:34;12.97;;;5.50;;
19998;SDS011;10160;50.926;4.374;2024-01-16T05:16:00;12.57;;;4.53;;
19998;SDS011;10160;50.926;4.374;2024-01-16T05:18:26;11.70;;;4.93;;
19998;SDS011;10160;50.926;4.374;2024-01-16T05:20:52;11.27;;;5.33;;
19998;SDS011;10160;50.926;4.374;2024-01-16T05:23:38;13.60;;;5.10;;
19998;SDS011;10160;50.926;4.374;2024-01-16T05:26:04;11.00;;;5.43;;
19998;SDS011;10160;50.926;4.374;2024-01-16T05:28:30;12.27;;;5.70;;
19998;SDS011;10160;50.926;4.374;2024-01-16T05:30:55;11.73;;;5.00;;
19998;SDS011;10160;50.926;4.374;2024-01-16T05:33:27;12.00;;;4.70;;
19998;SDS011;10160;50.926;4.374;2024-01-16T05:35:53;16.00;;;5.40;;
19998;SDS011;10160;50.926;4.374;2024-01-16T05:38:19;12.80;;;5.43;;
19998;SDS011;10160;50.926;4.374;2024-01-16T05:40:44;13.67;;;4.27;;
19998;SDS011;10160;50.926;4.374;2024-01-16T05:43:10;13.80;;;5.57;;
19998;SDS011;10160;50.926;4.374;2024-01-16T05:45:39;12.60;;;5.73;;
19998;SDS011;10160;50.926;4.374;2024-01-16T05:48:05;8.90;;;4.70;;
19998;SDS011;10160;50.926;4.374;2024-01-16T05:50:33;12.87;;;5.03;;
19998;SDS011;10160;50.926;4.374;2024-01-16T05:52:59;9.20;;;4.70;;
19998;SDS011;10160;50.926;4.374;2024-01-16T05:55:28;11.27;;;5.57;;
19998;SDS011;10160;50.926;4.374;2024-01-16T05:57:57;13.40;;;5.83;;
19998;SDS011;10160;50.926;4.374;2024-01-16T06:00:42;10.37;;;4.00;;
19998;SDS011;10160;50.926;4.374;2024-01-16T06:03:11;9.87;;;5.10;;
19998;SDS011;10160;50.926;4.374;2024-01-16T06:05:37;14.73;;;5.00;;
19998;SDS011;10160;50.926;4.374;2024-01-16T06:08:03;12.50;;;4.97;;
19998;SDS011;10160;50.926;4.374;2024-01-16T06:10:28;11.53;;;5.30;;
19998;SDS011;10160;50.926;4.374;2024-01-16T06:12:54;12.40;;;5.53;;
19998;SDS011;10160;50.926;4.374;2024-01-16T06:15:20;12.67;;;5.33;;
19998;SDS011;10160;50.926;4.374;2024-01-16T06:17:45;13.23;;;5.43;;
19998;SDS011;10160;50.926;4.374;2024-01-16T06:20:11;10.43;;;4.90;;
19998;SDS011;10160;50.926;4.374;2024-01-16T06:22:37;8.60;;;4.60;;
19998;SDS011;10160;50.926;4.374;2024-01-16T06:25:02;16.63;;;5.10;;
19998;SDS011;10160;50.926;4.374;2024-01-16T06:27:31;11.80;;;4.07;;
19998;SDS011;10160;50.926;4.374;2024-01-16T06:30:00;11.87;;;5.17;;
19998;SDS011;10160;50.926;4.374;2024-01-16T06:32:26;12.53;;;5.57;;
19998;SDS011;10160;50.926;4.374;2024-01-16T06:34:51;10.03;;;5.20;;
19998;SDS011;10160;50.926;4.374;2024-01-16T06:37:17;13.10;;;5.77;;
19998;SDS011;10160;50.926;4.374;2024-01-16T06:39:49;11.70;;;6.03;;
19998;SDS011;10160;50.926;4.374;2024-01-16T06:42:15;15.10;;;5.57;;
19998;SDS011;10160;50.926;4.374;2024-01-16T06:44:40;13.77;;;5.63;;
19998;SDS011;10160;50.926;4.374;2024-01-16T06:47:08;14.57;;;6.10;;
19998;SDS011;10160;50.926;4.374;2024-01-16T06:49:37;13.93;;;5.37;;
19998;SDS011;10160;50.926;4.374;2024-01-16T06:52:07;9.43;;;4.93;;
19998;SDS011;10160;50.926;4.374;2024-01-16T06:54:34;18.63;;;5.87;;
19998;SDS011;10160;50.926;4.374;2024-01-16T06:57:02;15.03;;;5.63;;
19998;SDS011;10160;50.926;4.374;2024-01-16T06:59:31;18.40;;;5.90;;
19998;SDS011;10160;50.926;4.374;2024-01-16T07:01:59;16.47;;;6.00;;
19998;SDS011;10160;50.926;4.374;2024-01-16T07:04:25;9.93;;;4.50;;
19998;SDS011;10160;50.926;4.374;2024-01-16T07:06:57;12.77;;;5.90;;
19998;SDS011;10160;50.926;4.374;2024-01-16T07:09:24;14.10;;;5.47;;
19998;SDS011;10160;50.926;4.374;2024-01-16T07:11:53;14.93;;;5.60;;
19998;SDS011;10160;50.926;4.374;2024-01-16T07:14:19;11.40;;;6.00;;
19998;SDS011;10160;50.926;4.374;2024-01-16T07:16:45;11.93;;;5.50;;
19998;SDS011;10160;50.926;4.374;2024-01-16T07:19:17;12.57;;;5.80;;
19998;SDS011;10160;50.926;4.374;2024-01-16T07:21:42;10.27;;;4.87;;
19998;SDS011;10160;50.926;4.374;2024-01-16T07:24:09;15.13;;;6.20;;
19998;SDS011;10160;50.926;4.374;2024-01-16T07:26:35;12.13;;;6.63;;
19998;SDS011;10160;50.926;4.374;2024-01-16T07:29:04;12.83;;;5.60;;
19998;SDS011;10160;50.926;4.374;2024-01-16T07:31:30;10.23;;;4.83;;
19998;SDS011;10160;50.926;4.374;2024-01-16T07:33:55;12.30;;;5.33;;
19998;SDS011;10160;50.926;4.374;2024-01-16T07:36:21;12.27;;;5.40;;
19998;SDS011;10160;50.926;4.374;2024-01-16T07:38:47;11.37;;;5.10;;
19998;SDS011;10160;50.926;4.374;2024-01-16T07:41:12;11.87;;;5.20;;
19998;SDS011;10160;50.926;4.374;2024-01-16T07:43:38;11.37;;;5.70;;
19998;SDS011;10160;50.926;4.374;2024-01-16T07:46:06;13.30;;;6.07;;
19998;SDS011;10160;50.926;4.374;2024-01-16T07:48:32;16.43;;;6.47;;
19998;SDS011;10160;50.926;4.374;2024-01-16T07:50:58;12.53;;;5.93;;
19998;SDS011;10160;50.926;4.374;2024-01-16T07:53:23;8.27;;;4.90;;
19998;SDS011;10160;50.926;4.374;2024-01-16T07:55:52;14.13;;;5.80;;
19998;SDS011;10160;50.926;4.374;2024-01-16T07:58:19;10.10;;;4.83;;
19998;SDS011;10160;50.926;4.374;2024-01-16T08:00:45;10.57;;;4.33;;
19998;SDS011;10160;50.926;4.374;2024-01-16T08:03:11;10.90;;;5.77;;
19998;SDS011;10160;50.926;4.374;2024-01-16T08:05:37;13.77;;;5.80;;
19998;SDS011;10160;50.926;4.374;2024-01-16T08:08:08;12.67;;;6.03;;
19998;SDS011;10160;50.926;4.374;2024-01-16T08:10:34;13.70;;;5.13;;
19998;SDS011;10160;50.926;4.374;2024-01-16T08:13:00;13.53;;;5.90;;
19998;SDS011;10160;50.926;4.374;2024-01-16T08:15:26;12.40;;;6.20;;
19998;SDS011;10160;50.926;4.374;2024-01-16T08:17:51;17.97;;;6.87;;
19998;SDS011;10160;50.926;4.374;2024-01-16T08:20:20;12.57;;;4.90;;
19998;SDS011;10160;50.926;4.374;2024-01-16T08:22:45;15.73;;;6.23;;
19998;SDS011;10160;50.926;4.374;2024-01-16T08:25:11;15.20;;;6.20;;
19998;SDS011;10160;50.926;4.374;2024-01-16T08:27:37;11.47;;;5.60;;
19998;SDS011;10160;50.926;4.374;2024-01-16T08:30:04;18.20;;;6.30;;
19998;SDS011;10160;50.926;4.374;2024-01-16T08:32:30;13.03;;;5.50;;
19998;SDS011;10160;50.926;4.374;2024-01-16T08:34:57;15.67;;;4.93;;
19998;SDS011;10160;50.926;4.374;2024-01-16T08:37:22;16.33;;;6.47;;
19998;SDS011;10160;50.926;4.374;2024-01-16T08:39:49;10.57;;;5.33;;
19998;SDS011;10160;50.926;4.374;2024-01-16T08:42:17;16.73;;;6.40;;
19998;SDS011;10160;50.926;4.374;2024-01-16T08:44:43;12.90;;;6.00;;
19998;SDS011;10160;50.926;4.374;2024-01-16T08:47:09;24.50;;;6.57;;
19998;SDS011;10160;50.926;4.374;2024-01-16T08:49:37;12.97;;;4.77;;
19998;SDS011;10160;50.926;4.374;2024-01-16T08:52:03;10.93;;;5.17;;
19998;SDS011;10160;50.926;4.374;2024-01-16T08:54:30;17.40;;;5.57;;
19998;SDS011;10160;50.926;4.374;2024-01-16T08:56:55;15.90;;;6.13;;
19998;SDS011;10160;50.926;4.374;2024-01-16T08:59:21;14.40;;;5.57;;
19998;SDS011;10160;50.926;4.374;2024-01-16T09:01:47;11.87;;;4.93;;
19998;SDS011;10160;50.926;4.374;2024-01-16T09:04:13;13.70;;;5.97;;
19998;SDS011;10160;50.926;4.374;2024-01-16T09:06:39;12.10;;;4.70;;
19998;SDS011;10160;50.926;4.374;2024-01-16T09:09:05;10.80;;;5.03;;
19998;SDS011;10160;50.926;4.374;2024-01-16T09:11:30;15.60;;;6.00;;
19998;SDS011;10160;50.926;4.374;2024-01-16T09:13:57;12.13;;;5.63;;
19998;SDS011;10160;50.926;4.374;2024-01-16T09:16:23;9.33;;;4.43;;
19998;SDS011;10160;50.926;4.374;2024-01-16T09:18:48;12.00;;;5.10;;
19998;SDS011;10160;50.926;4.374;2024-01-16T09:21:14;11.20;;;4.67;;
19998;SDS011;10160;50.926;4.374;2024-01-16T09:23:41;10.30;;;5.00;;
19998;SDS011;10160;50.926;4.374;2024-01-16T09:26:06;9.63;;;4.33;;
19998;SDS011;10160;50.926;4.374;2024-01-16T09:28:32;13.23;;;5.33;;
19998;SDS011;10160;50.926;4.374;2024-01-16T09:31:01;11.17;;;4.67;;
19998;SDS011;10160;50.926;4.374;2024-01-16T09:33:31;10.20;;;5.13;;
19998;SDS011;10160;50.926;4.374;2024-01-16T09:35:56;13.80;;;5.20;;
19998;SDS011;10160;50.926;4.374;2024-01-16T09:38:22;12.67;;;5.33;;
19998;SDS011;10160;50.926;4.374;2024-01-16T09:40:48;9.23;;;3.90;;
19998;SDS011;10160;50.926;4.374;2024-01-16T09:43:17;10.03;;;5.50;;
19998;SDS011;10160;50.926;4.374;2024-01-16T09:45:43;13.90;;;5.17;;
19998;SDS011;10160;50.926;4.374;2024-01-16T09:48:12;17.23;;;5.70;;
19998;SDS011;10160;50.926;4.374;2024-01-16T09:50:38;13.67;;;5.33;;
19998;SDS011;10160;50.926;4.374;2024-01-16T09:53:04;13.23;;;5.23;;
19998;SDS011;10160;50.926;4.374;2024-01-16T09:55:30;11.30;;;5.17;;
19998;SDS011;10160;50.926;4.374;2024-01-16T09:57:58;17.37;;;4.33;;
19998;SDS011;10160;50.926;4.374;2024-01-16T10:00:25;11.47;;;3.77;;
19998;SDS011;10160;50.926;4.374;2024-01-16T10:02:52;11.63;;;5.27;;
19998;SDS011;10160;50.926;4.374;2024-01-16T10:05:23;9.47;;;3.70;;
19998;SDS011;10160;50.926;4.374;2024-01-16T10:07:49;9.97;;;4.73;;
19998;SDS011;10160;50.926;4.374;2024-01-16T10:10:17;12.47;;;4.57;;
19998;SDS011;10160;50.926;4.374;2024-01-16T10:12:44;11.20;;;4.93;;
19998;SDS011;10160;50.926;4.374;2024-01-16T10:15:13;11.23;;;4.43;;
19998;SDS011;10160;50.926;4.374;2024-01-16T10:17:41;9.43;;;4.60;;
19998;SDS011;10160;50.926;4.374;2024-01-16T10:20:08;11.80;;;4.27;;
19998;SDS011;10160;50.926;4.374;2024-01-16T10:22:41;13.83;;;4.97;;
19998;SDS011;10160;50.926;4.374;2024-01-16T10:25:18;7.70;;;3.60;;
19998;SDS011;10160;50.926;4.374;2024-01-16T10:27:46;13.27;;;5.03;;
19998;SDS011;10160;50.926;4.374;2024-01-16T10:30:12;9.47;;;4.03;;
19998;SDS011;10160;50.926;4.374;2024-01-16T10:32:42;13.80;;;5.17;;
19998;SDS011;10160;50.926;4.374;2024-01-16T10:35:12;11.87;;;4.07;;
19998;SDS011;10160;50.926;4.374;2024-01-16T10:37:51;15.07;;;4.10;;
19998;SDS011;10160;50.926;4.374;2024-01-16T10:40:24;13.87;;;3.70;;
19998;SDS011;10160;50.926;4.374;2024-01-16T10:43:00;13.60;;;4.00;;
19998;SDS011;10160;50.926;4.374;2024-01-16T10:45:27;13.70;;;4.23;;
19998;SDS011;10160;50.926;4.374;2024-01-16T10:48:06;10.97;;;3.60;;
19998;SDS011;10160;50.926;4.374;2024-01-16T10:50:33;15.30;;;5.53;;
19998;SDS011;10160;50.926;4.374;2024-01-16T10:53:01;11.40;;;4.67;;
19998;SDS011;10160;50.926;4.374;2024-01-16T10:55:29;11.83;;;3.47;;
19998;SDS011;10160;50.926;4.374;2024-01-16T10:58:02;6.57;;;2.67;;
19998;SDS011;10160;50.926;4.374;2024-01-16T11:00:31;13.53;;;4.30;;
19998;SDS011;10160;50.926;4.374;2024-01-16T11:05:42;18.67;;;2.57;;
19998;SDS011;10160;50.926;4.374;2024-01-16T11:08:09;12.60;;;3.87;;
19998;SDS011;10160;50.926;4.374;2024-01-16T11:10:38;10.73;;;2.60;;
19998;SDS011;10160;50.926;4.374;2024-01-16T11:13:05;11.10;;;2.83;;
19998;SDS011;10160;50.926;4.374;2024-01-16T11:15:31;10.30;;;2.90;;
19998;SDS011;10160;50.926;4.374;2024-01-16T11:17:58;12.50;;;3.40;;
19998;SDS011;10160;50.926;4.374;2024-01-16T11:20:24;9.13;;;3.30;;
19998;SDS011;10160;50.926;4.374;2024-01-16T11:23:01;8.33;;;2.93;;
19998;SDS011;10160;50.926;4.374;2024-01-16T11:25:31;12.30;;;2.90;;
19998;SDS011;10160;50.926;4.374;2024-01-16T11:28:11;6.93;;;2.67;;
19998;SDS011;10160;50.926;4.374;2024-01-16T11:30:38;10.17;;;3.00;;
19998;SDS011;10160;50.926;4.374;2024-01-16T11:33:05;6.60;;;2.93;;
19998;SDS011;10160;50.926;4.374;2024-01-16T11:35:34;9.33;;;2.93;;
19998;SDS011;10160;50.926;4.374;2024-01-16T11:38:05;10.67;;;3.60;;
19998;SDS011;10160;50.926;4.374;2024-01-16T11:40:41;9.17;;;3.10;;
19998;SDS011;10160;50.926;4.374;2024-01-16T11:46:07;10.33;;;3.40;;
19998;SDS011;10160;50.926;4.374;2024-01-16T11:48:33;10.37;;;3.03;;
19998;SDS011;10160;50.926;4.374;2024-01-16T11:50:59;7.30;;;2.97;;
19998;SDS011;10160;50.926;4.374;2024-01-16T12:02:14;9.68;;;2.75;;
19998;SDS011;10160;50.926;4.374;2024-01-16T12:04:53;8.93;;;3.20;;
19998;SDS011;10160;50.926;4.374;2024-01-16T12:07:23;7.80;;;2.87;;
19998;SDS011;10160;50.926;4.374;2024-01-16T12:09:49;9.63;;;3.30;;
19998;SDS011;10160;50.926;4.374;2024-01-16T12:12:15;6.20;;;2.77;;
19998;SDS011;10160;50.926;4.374;2024-01-16T12:14:50;7.93;;;3.50;;
19998;SDS011;10160;50.926;4.374;2024-01-16T12:17:17;8.70;;;3.67;;
19998;SDS011;10160;50.926;4.374;2024-01-16T12:19:45;9.30;;;3.27;;
19998;SDS011;10160;50.926;4.374;2024-01-16T12:22:14;7.40;;;3.03;;
19998;SDS011;10160;50.926;4.374;2024-01-16T12:24:41;8.70;;;2.90;;
19998;SDS011;10160;50.926;4.374;2024-01-16T12:27:07;10.77;;;3.03;;
19998;SDS011;10160;50.926;4.374;2024-01-16T12:29:34;12.17;;;2.80;;
19998;SDS011;10160;50.926;4.374;2024-01-16T12:32:07;5.33;;;2.17;;
19998;SDS011;10160;50.926;4.374;2024-01-16T12:34:43;7.27;;;3.00;;
19998;SDS011;10160;50.926;4.374;2024-01-16T12:37:10;8.57;;;2.80;;
19998;SDS011;10160;50.926;4.374;2024-01-16T12:39:37;10.80;;;3.20;;
19998;SDS011;10160;50.926;4.374;2024-01-16T12:42:03;4.87;;;2.17;;
19998;SDS011;10160;50.926;4.374;2024-01-16T12:44:29;8.23;;;3.40;;
19998;SDS011;10160;50.926;4.374;2024-01-16T12:46:55;7.63;;;2.80;;
19998;SDS011;10160;50.926;4.374;2024-01-16T12:49:28;11.93;;;3.13;;
19998;SDS011;10160;50.926;4.374;2024-01-16T12:54:39;6.90;;;3.17;;
19998;SDS011;10160;50.926;4.374;2024-01-16T12:57:08;9.77;;;3.27;;
19998;SDS011;10160;50.926;4.374;2024-01-16T12:59:41;8.90;;;3.13;;
19998;SDS011;10160;50.926;4.374;2024-01-16T13:02:25;8.60;;;3.00;;
19998;SDS011;10160;50.926;4.374;2024-01-16T13:04:57;7.90;;;3.00;;
19998;SDS011;10160;50.926;4.374;2024-01-16T13:07:24;11.33;;;3.40;;
19998;SDS011;10160;50.926;4.374;2024-01-16T13:10:05;8.57;;;3.47;;
19998;SDS011;10160;50.926;4.374;2024-01-16T13:12:34;12.10;;;4.30;;
19998;SDS011;10160;50.926;4.374;2024-01-16T13:15:01;9.00;;;3.40;;
19998;SDS011;10160;50.926;4.374;2024-01-16T13:17:30;9.37;;;3.07;;
19998;SDS011;10160;50.926;4.374;2024-01-16T13:19:59;8.00;;;2.90;;
19998;SDS011;10160;50.926;4.374;2024-01-16T13:22:26;15.50;;;3.40;;
19998;SDS011;10160;50.926;4.374;2024-01-16T13:24:52;10.97;;;3.20;;
19998;SDS011;10160;50.926;4.374;2024-01-16T13:27:17;8.40;;;2.83;;
19998;SDS011;10160;50.926;4.374;2024-01-16T13:29:43;8.07;;;2.87;;
19998;SDS011;10160;50.926;4.374;2024-01-16T13:32:10;11.77;;;3.40;;
19998;SDS011;10160;50.926;4.374;2024-01-16T13:34:35;7.87;;;3.23;;
19998;SDS011;10160;50.926;4.374;2024-01-16T13:37:02;9.13;;;3.47;;
19998;SDS011;10160;50.926;4.374;2024-01-16T13:39:29;12.00;;;3.27;;
19998;SDS011;10160;50.926;4.374;2024-01-16T13:42:01;9.70;;;3.03;;
19998;SDS011;10160;50.926;4.374;2024-01-16T13:44:30;7.57;;;3.07;;
19998;SDS011;10160;50.926;4.374;2024-01-16T13:46:56;9.27;;;3.00;;
19998;SDS011;10160;50.926;4.374;2024-01-16T13:49:22;10.97;;;3.40;;
19998;SDS011;10160;50.926;4.374;2024-01-16T13:51:47;8.77;;;3.07;;
19998;SDS011;10160;50.926;4.374;2024-01-16T13:54:14;11.00;;;3.00;;
19998;SDS011;10160;50.926;4.374;2024-01-16T13:56:40;6.50;;;3.03;;
19998;SDS011;10160;50.926;4.374;2024-01-16T13:59:12;8.17;;;3.10;;
19998;SDS011;10160;50.926;4.374;2024-01-16T14:01:37;6.87;;;2.70;;
19998;SDS011;10160;50.926;4.374;2024-01-16T14:04:03;10.37;;;2.90;;
19998;SDS011;10160;50.926;4.374;2024-01-16T14:06:30;6.27;;;2.20;;
19998;SDS011;10160;50.926;4.374;2024-01-16T14:08:56;14.00;;;2.57;;
19998;SDS011;10160;50.926;4.374;2024-01-16T14:11:21;7.00;;;2.47;;
19998;SDS011;10160;50.926;4.374;2024-01-16T14:13:47;9.40;;;2.50;;
19998;SDS011;10160;50.926;4.374;2024-01-16T14:16:13;9.13;;;3.10;;
19998;SDS011;10160;50.926;4.374;2024-01-16T14:18:42;8.30;;;2.50;;
19998;SDS011;10160;50.926;4.374;2024-01-16T14:21:07;8.30;;;2.70;;
19998;SDS011;10160;50.926;4.374;2024-01-16T14:23:33;7.53;;;3.03;;
19998;SDS011;10160;50.926;4.374;2024-01-16T14:25:59;8.93;;;2.73;;
19998;SDS011;10160;50.926;4.374;2024-01-16T14:28:28;14.40;;;2.70;;
19998;SDS011;10160;50.926;4.374;2024-01-16T14:30:53;9.27;;;2.90;;
19998;SDS011;10160;50.926;4.374;2024-01-16T14:33:19;5.37;;;2.47;;
19998;SDS011;10160;50.926;4.374;2024-01-16T14:35:44;8.70;;;3.03;;
19998;SDS011;10160;50.926;4.374;2024-01-16T14:38:10;7.40;;;2.40;;
19998;SDS011;10160;50.926;4.374;2024-01-16T14:40:36;6.73;;;3.10;;
19998;SDS011;10160;50.926;4.374;2024-01-16T14:43:05;7.63;;;2.77;;
19998;SDS011;10160;50.926;4.374;2024-01-16T14:45:34;9.63;;;2.80;;
19998;SDS011;10160;50.926;4.374;2024-01-16T14:48:00;9.40;;;3.00;;
19998;SDS011;10160;50.926;4.374;2024-01-16T14:50:28;8.53;;;3.00;;
19998;SDS011;10160;50.926;4.374;2024-01-16T14:52:55;8.10;;;3.20;;
19998;SDS011;10160;50.926;4.374;2024-01-16T14:55:21;9.27;;;2.83;;
19998;SDS011;10160;50.926;4.374;2024-01-16T14:57:47;10.47;;;3.90;;
19998;SDS011;10160;50.926;4.374;2024-01-16T15:00:18;8.03;;;2.70;;
19998;SDS011;10160;50.926;4.374;2024-01-16T15:02:52;6.50;;;2.60;;